createdAt,value
2023-03-31T00:04:37.970Z,999.3
2023-03-31T00:09:44.340Z,999.1
2023-03-31T00:15:14.745Z,999.1
2023-03-31T00:20:53.206Z,999.0
2023-03-31T00:25:03.534Z,999.0
2023-03-31T00:30:29.878Z,999.0
2023-03-31T00:35:16.212Z,999.0
2023-03-31T00:41:06.841Z,998.8
2023-03-31T00:45:29.187Z,998.8
2023-03-31T00:50:35.620Z,998.8
2023-03-31T00:55:41.988Z,998.6
2023-03-31T01:00:48.529Z,998.5
2023-03-31T01:05:54.809Z,998.5
2023-03-31T01:11:01.196Z,998.4
2023-03-31T01:16:08.080Z,998.3
2023-03-31T01:21:14.185Z,998.1
2023-03-31T01:26:20.564Z,998.1
2023-03-31T01:31:27.051Z,997.9
2023-03-31T01:36:33.306Z,997.8
2023-03-31T01:41:39.700Z,997.9
2023-03-31T01:47:06.293Z,997.8
2023-03-31T01:52:33.836Z,997.7
2023-03-31T01:56:58.184Z,997.6
2023-03-31T02:02:05.535Z,997.6
2023-03-31T02:07:31.952Z,997.4
2023-03-31T02:13:02.351Z,997.5
2023-03-31T02:17:48.729Z,997.4
2023-03-31T02:22:55.104Z,997.2
2023-03-31T02:27:57.690Z,997.2
2023-03-31T02:32:44.119Z,997.1
2023-03-31T02:38:14.487Z,997.0
2023-03-31T02:42:56.805Z,996.9
2023-03-31T02:48:03.213Z,996.9
2023-03-31T02:53:09.591Z,996.6
2023-03-31T02:58:16.158Z,996.4
2023-03-31T03:03:23.811Z,996.3
2023-03-31T03:08:30.175Z,996.1
2023-03-31T03:14:00.718Z,996.2
2023-03-31T03:19:07.065Z,995.9
2023-03-31T03:23:49.393Z,995.9
2023-03-31T03:28:55.897Z,995.9
2023-03-31T03:34:02.350Z,995.6
2023-03-31T03:39:28.709Z,995.5
2023-03-31T03:44:15.054Z,995.2
2023-03-31T03:49:21.548Z,995.2
2023-03-31T03:54:29.473Z,995.1
2023-03-31T03:59:35.845Z,995.1
2023-03-31T04:04:42.433Z,995.0
2023-03-31T04:09:48.799Z,995.0
2023-03-31T04:14:56.757Z,994.9
2023-03-31T04:20:03.172Z,994.8
2023-03-31T04:25:11.164Z,994.6
2023-03-31T04:30:21.557Z,994.5
2023-03-31T04:35:25.567Z,994.5
2023-03-31T04:40:32.014Z,994.4
2023-03-31T04:45:42.451Z,994.3
2023-03-31T04:50:44.797Z,994.0
2023-03-31T04:55:51.167Z,993.9
2023-03-31T05:00:57.581Z,993.9
2023-03-31T05:06:04.488Z,993.9
2023-03-31T05:11:10.425Z,993.9
2023-03-31T05:16:16.940Z,993.8
2023-03-31T05:21:27.348Z,993.7
2023-03-31T05:26:31.258Z,993.7
2023-03-31T05:31:37.703Z,993.6
2023-03-31T05:36:45.617Z,993.4
2023-03-31T05:41:52.127Z,993.4
2023-03-31T05:46:58.614Z,993.1
2023-03-31T05:52:05.028Z,993.1
2023-03-31T05:57:15.398Z,992.9
2023-03-31T06:02:17.788Z,992.8
2023-03-31T06:07:25.717Z,992.6
2023-03-31T06:12:32.300Z,992.4
2023-03-31T06:17:39.166Z,992.2
2023-03-31T06:22:45.296Z,992.2
2023-03-31T06:27:53.186Z,992.2
2023-03-31T06:32:59.588Z,992.1
2023-03-31T06:38:07.544Z,992.0
2023-03-31T06:43:17.885Z,992.0
2023-03-31T06:48:20.253Z,992.0
2023-03-31T06:58:39.615Z,991.7
2023-03-31T07:03:43.006Z,991.7
2023-03-31T07:08:49.385Z,991.6
2023-03-31T07:13:57.363Z,991.6
2023-03-31T07:19:03.702Z,991.5
2023-03-31T07:24:11.622Z,991.6
2023-03-31T07:29:18.017Z,991.5
2023-03-31T07:34:24.368Z,991.4
2023-03-31T07:39:30.737Z,991.4
2023-03-31T07:44:37.154Z,991.4
2023-03-31T07:49:43.627Z,991.4
2023-03-31T07:54:50.005Z,991.3
2023-03-31T07:59:56.544Z,991.3
2023-03-31T08:05:03.316Z,991.2
2023-03-31T08:10:09.213Z,991.2
2023-03-31T08:15:16.628Z,991.2
2023-03-31T08:25:29.659Z,991.2
2023-03-31T08:30:36.058Z,991.3
2023-03-31T08:35:44.031Z,991.2
2023-03-31T08:40:50.344Z,991.1
2023-03-31T08:45:56.788Z,991.1
2023-03-31T08:51:04.603Z,991.1
2023-03-31T08:56:15.206Z,991.0
2023-03-31T09:01:21.682Z,990.9
2023-03-31T09:06:25.506Z,990.9
2023-03-31T09:11:32.055Z,990.9
2023-03-31T09:16:38.505Z,990.9
2023-03-31T09:21:48.795Z,990.8
2023-03-31T09:26:52.744Z,990.9
2023-03-31T09:31:59.167Z,990.7
2023-03-31T09:37:05.600Z,990.6
2023-03-31T09:42:12.088Z,990.6
2023-03-31T09:47:18.590Z,990.6
2023-03-31T09:52:24.957Z,990.4
2023-03-31T09:57:33.565Z,990.4
2023-03-31T10:02:37.794Z,990.3
2023-03-31T10:07:45.663Z,990.4
2023-03-31T10:12:52.154Z,990.2
2023-03-31T10:17:58.611Z,990.1
2023-03-31T10:23:04.923Z,990.1
2023-03-31T10:28:12.850Z,990.1
2023-03-31T10:33:23.222Z,990.0
2023-03-31T10:38:27.195Z,990.0
2023-03-31T10:43:33.724Z,989.9
2023-03-31T10:48:40.135Z,990.0
2023-03-31T10:53:46.505Z,989.8
2023-03-31T10:59:04.615Z,989.8
2023-03-31T11:03:59.493Z,989.8
2023-03-31T11:09:05.870Z,989.7
2023-03-31T11:14:12.374Z,989.6
2023-03-31T11:19:18.785Z,989.6
2023-03-31T11:24:25.681Z,989.6
2023-03-31T11:29:32.053Z,989.5
2023-03-31T11:34:38.466Z,989.5
2023-03-31T11:39:48.850Z,989.4
2023-03-31T11:44:51.210Z,989.3
2023-03-31T11:49:57.785Z,989.2
2023-03-31T11:54:54.149Z,989.4
2023-03-31T12:00:10.527Z,989.1
2023-03-31T12:05:20.663Z,989.4
2023-03-31T12:10:30.834Z,989.1
2023-03-31T12:15:33.212Z,988.9
2023-03-31T12:20:39.774Z,988.8
2023-03-31T12:25:46.201Z,988.9
2023-03-31T12:30:53.813Z,988.8
2023-03-31T12:35:58.995Z,988.8
2023-03-31T12:41:05.344Z,988.8
2023-03-31T12:46:11.847Z,988.7
2023-03-31T12:51:18.202Z,988.8
2023-03-31T12:56:24.572Z,988.7
2023-03-31T13:01:31.002Z,988.7
2023-03-31T13:06:37.341Z,988.7
2023-03-31T13:11:43.686Z,988.7
2023-03-31T13:16:50.095Z,988.7
2023-03-31T13:21:56.450Z,988.5
2023-03-31T13:27:02.789Z,988.6
2023-03-31T13:32:09.198Z,988.4
2023-03-31T13:37:15.751Z,988.5
2023-03-31T13:42:22.215Z,988.7
2023-03-31T13:47:28.606Z,988.5
2023-03-31T13:52:34.968Z,988.5
2023-03-31T13:57:41.329Z,988.6
2023-03-31T14:02:47.763Z,988.4
2023-03-31T14:07:54.671Z,988.5
2023-03-31T14:13:01.005Z,988.3
2023-03-31T14:18:07.471Z,988.3
2023-03-31T14:23:13.100Z,988.3
2023-03-31T14:28:24.448Z,988.3
2023-03-31T14:33:26.843Z,988.3
2023-03-31T14:38:33.240Z,988.2
2023-03-31T14:43:39.595Z,988.1
2023-03-31T14:48:45.966Z,988.1
2023-03-31T14:53:52.574Z,988.0
2023-03-31T14:58:58.928Z,987.9
2023-03-31T15:04:05.290Z,987.7
2023-03-31T15:09:11.684Z,988.0
2023-03-31T15:14:18.165Z,987.9
2023-03-31T15:19:24.486Z,988.0
2023-03-31T15:24:30.902Z,987.9
2023-03-31T15:29:37.258Z,988.0
2023-03-31T15:34:43.615Z,988.1
2023-03-31T15:39:50.012Z,988.2
2023-03-31T15:44:57.925Z,988.0
2023-03-31T15:50:04.392Z,987.8
2023-03-31T15:55:12.293Z,987.9
2023-03-31T16:00:18.636Z,987.9
2023-03-31T16:05:27.521Z,987.9
2023-03-31T16:10:33.040Z,987.7
2023-03-31T16:15:39.428Z,987.8
2023-03-31T16:20:45.760Z,987.8
2023-03-31T16:25:52.169Z,987.8
2023-03-31T16:30:58.672Z,987.7
2023-03-31T16:36:05.156Z,987.8
2023-03-31T16:41:15.555Z,987.8
2023-03-31T16:46:17.972Z,987.8
2023-03-31T16:51:24.264Z,987.8
2023-03-31T16:56:32.269Z,987.9
2023-03-31T17:01:39.027Z,987.8
2023-03-31T17:06:45.313Z,987.8
2023-03-31T17:11:51.736Z,987.9
2023-03-31T17:17:01.742Z,987.9
2023-03-31T17:22:09.203Z,987.8
2023-03-31T17:27:15.686Z,987.9
2023-03-31T17:32:22.313Z,987.7
2023-03-31T17:37:30.019Z,987.8
2023-03-31T17:42:36.463Z,987.8
2023-03-31T17:47:42.857Z,987.8
2023-03-31T17:52:49.297Z,987.9
2023-03-31T17:58:50.006Z,987.8
2023-03-31T18:04:18.438Z,987.9
2023-03-31T18:09:02.738Z,987.9
2023-03-31T18:14:28.276Z,988.0
2023-03-31T18:19:20.612Z,988.0
2023-03-31T18:24:02.941Z,988.0
2023-03-31T18:30:13.501Z,988.0
2023-03-31T18:34:15.688Z,988.0
2023-03-31T18:39:22.092Z,988.0
2023-03-31T18:44:52.480Z,988.1
2023-03-31T18:49:34.884Z,988.1
2023-03-31T18:54:41.366Z,988.1
2023-03-31T18:59:47.772Z,988.2
2023-03-31T19:06:02.322Z,988.1
2023-03-31T19:10:00.574Z,988.1
2023-03-31T19:15:07.567Z,988.1
2023-03-31T19:21:17.220Z,988.1
2023-03-31T19:25:19.527Z,988.1
2023-03-31T19:30:26.899Z,988.1
2023-03-31T19:35:33.350Z,988.1
2023-03-31T19:40:39.702Z,988.1
2023-03-31T19:46:06.215Z,988.1
2023-03-31T19:51:12.489Z,988.1
2023-03-31T19:55:58.939Z,988.0
2023-03-31T20:01:29.393Z,988.1
2023-03-31T20:06:31.750Z,988.0
2023-03-31T20:11:18.243Z,988.0
2023-03-31T20:16:24.514Z,987.9
2023-03-31T20:21:50.886Z,987.9
2023-03-31T20:26:38.375Z,987.8
2023-03-31T20:33:33.940Z,987.8
2023-03-31T20:36:50.115Z,987.9
2023-03-31T20:42:17.550Z,987.8
2023-03-31T20:47:48.003Z,987.8
2023-03-31T20:52:49.343Z,987.9
2023-03-31T20:57:15.693Z,987.9
2023-03-31T21:03:43.477Z,987.9
2023-03-31T21:07:29.633Z,987.9
2023-03-31T21:12:36.035Z,987.8
2023-03-31T21:17:42.483Z,988.0
2023-03-31T21:23:12.872Z,987.9
2023-03-31T21:28:15.228Z,988.0
2023-03-31T21:33:21.594Z,988.0
2023-03-31T21:38:28.002Z,988.0
2023-03-31T21:43:14.304Z,988.0
2023-03-31T21:48:22.278Z,987.9
2023-03-31T21:54:12.776Z,987.9
2023-03-31T21:58:35.007Z,987.9
2023-03-31T22:03:41.469Z,987.9
2023-03-31T22:08:47.907Z,987.9
2023-03-31T22:13:54.316Z,987.9
2023-03-31T22:19:00.653Z,987.9
2023-03-31T22:25:05.144Z,987.8
2023-03-31T22:29:13.519Z,987.8
2023-03-31T22:34:47.420Z,987.8
2023-03-31T22:39:29.868Z,987.9
2023-03-31T22:44:36.352Z,987.9
2023-03-31T22:49:42.722Z,987.9
2023-03-31T22:54:49.118Z,987.8
2023-03-31T22:59:55.513Z,987.9
2023-03-31T23:04:51.854Z,987.9
2023-03-31T23:10:08.432Z,987.8
2023-03-31T23:15:14.837Z,987.8
2023-03-31T23:20:45.250Z,987.8
2023-03-31T23:25:51.665Z,987.8
2023-03-31T23:30:34.156Z,987.8
2023-03-31T23:36:00.645Z,987.8
2023-03-31T23:41:30.996Z,987.8
2023-03-31T23:45:53.477Z,987.8
2023-03-31T23:51:03.781Z,987.7
2023-03-31T23:56:10.191Z,987.7
